Time;durP1;ratioP1;P1;durP2;ratioP2;P2;SDS_P1;SDS_P2;PMS_P1;PMS_P2;Temp;Humidity;BMP_temperature;BMP_pressure;BME280_temperature;BME280_humidity;BME280_pressure;Samples;Min_cycle;Max_cycle;Signal;HPM_P1;HPM_P2
2022/11/03 00:01:52;;;;;;;7.35;4.03;;;;;;;;;;5033682;28;20494;-69
2022/11/03 00:04:19;;;;;;;10.40;4.18;;;;;;;;;;5033859;28;20036;-68
2022/11/03 00:06:47;;;;;;;9.60;4.72;;;;;;;;;;5033827;28;20036;-68
2022/11/03 00:09:14;;;;;;;7.75;3.13;;;;;;;;;;5033835;28;20056;-68
2022/11/03 00:11:42;;;;;;;9.38;3.13;;;;;;;;;;5033682;28;20048;-68
2022/11/03 00:14:08;;;;;;;10.20;4.15;;;;;;;;;;5033674;28;20468;-68
2022/11/03 00:16:35;;;;;;;14.00;3.65;;;;;;;;;;5033548;28;20033;-68
2022/11/03 00:19:01;;;;;;;11.75;4.05;;;;;;;;;;5033583;28;20025;-68
2022/11/03 00:21:27;;;;;;;10.40;3.80;;;;;;;;;;5033355;28;20471;-68
2022/11/03 00:23:53;;;;;;;8.98;3.03;;;;;;;;;;5033627;28;20033;-69
2022/11/03 00:26:23;;;;;;;7.63;2.67;;;;;;;;;;5033428;28;20057;-69
2022/11/03 00:28:53;;;;;;;;;;;;;;;;;;5033747;28;20029;-69
2022/11/03 00:31:24;;;;;;;7.28;3.15;;;;;;;;;;5033020;28;19920;-68
2022/11/03 00:33:50;;;;;;;12.73;3.63;;;;;;;;;;5033394;28;20126;-75
2022/11/03 00:36:19;;;;;;;9.13;3.50;;;;;;;;;;5033354;28;20476;-73
2022/11/03 00:38:45;;;;;;;9.40;3.28;;;;;;;;;;5032910;28;20106;-72
2022/11/03 00:41:11;;;;;;;6.50;3.08;;;;;;;;;;5033152;28;20461;-69
2022/11/03 00:43:37;;;;;;;11.52;4.35;;;;;;;;;;5033093;28;20030;-67
2022/11/03 00:46:04;;;;;;;11.40;4.18;;;;;;;;;;5032893;28;20033;-68
2022/11/03 00:48:31;;;;;;;10.10;4.53;;;;;;;;;;5033084;28;20034;-68
2022/11/03 00:51:09;;;;;;;7.95;3.90;;;;;;;;;;5033051;28;20025;-68
2022/11/03 00:53:49;;;;;;;8.95;3.80;;;;;;;;;;5032852;28;20034;-68
2022/11/03 00:56:21;;;;;;;7.18;3.08;;;;;;;;;;5032993;28;20029;-71
2022/11/03 00:58:47;;;;;;;8.38;3.22;;;;;;;;;;5032674;28;20056;-69
2022/11/03 01:01:15;;;;;;;5.75;2.92;;;;;;;;;;5033006;28;20055;-68
2022/11/03 01:07:12;;;;;;;9.27;3.90;;;;;;;;;;5033010;28;20055;-78
2022/11/03 01:09:13;;;;;;;10.93;3.85;;;;;;;;;;5031712;28;20045;-68
2022/11/03 01:11:44;;;;;;;11.98;3.90;;;;;;;;;;5032674;28;20524;-69
2022/11/03 01:14:13;;;;;;;14.05;4.47;;;;;;;;;;5032709;28;20042;-68
2022/11/03 01:16:39;;;;;;;15.50;4.82;;;;;;;;;;5032665;28;20033;-69
2022/11/03 01:19:06;;;;;;;12.43;4.10;;;;;;;;;;5032733;28;20119;-75
2022/11/03 01:21:32;;;;;;;15.02;4.78;;;;;;;;;;5032581;28;20026;-70
2022/11/03 01:24:01;;;;;;;13.77;4.28;;;;;;;;;;5031446;28;20026;-72
2022/11/03 01:26:27;;;;;;;7.13;3.28;;;;;;;;;;5032668;28;20026;-69
2022/11/03 01:28:53;;;;;;;6.45;3.25;;;;;;;;;;5032245;28;20061;-68
2022/11/03 01:31:21;;;;;;;11.82;3.78;;;;;;;;;;5032622;28;20549;-71
2022/11/03 01:33:49;;;;;;;8.95;3.58;;;;;;;;;;5032704;28;20138;-68
2022/11/03 01:36:15;;;;;;;8.27;3.42;;;;;;;;;;5032546;28;20022;-71
2022/11/03 01:38:42;;;;;;;9.70;3.60;;;;;;;;;;5032599;28;20025;-70
2022/11/03 01:41:11;;;;;;;9.13;3.75;;;;;;;;;;5032467;28;20099;-68
2022/11/03 01:43:38;;;;;;;10.03;3.50;;;;;;;;;;5032381;28;20033;-68
2022/11/03 01:46:26;;;;;;;8.32;3.65;;;;;;;;;;5032177;28;20029;-69
2022/11/03 01:49:00;;;;;;;8.48;3.90;;;;;;;;;;5032045;28;20071;-70
2022/11/03 01:51:27;;;;;;;10.07;3.88;;;;;;;;;;5032286;28;20491;-69
2022/11/03 01:53:55;;;;;;;11.43;3.55;;;;;;;;;;5032494;28;20030;-70
2022/11/03 01:56:21;;;;;;;12.32;3.88;;;;;;;;;;5032245;28;20037;-69
2022/11/03 01:58:49;;;;;;;7.50;3.35;;;;;;;;;;5032279;28;20032;-68
2022/11/03 02:01:15;;;;;;;6.07;3.38;;;;;;;;;;5032400;28;20567;-77
2022/11/03 02:03:49;;;;;;;6.97;3.17;;;;;;;;;;5032423;28;20021;-68
2022/11/03 02:06:16;;;;;;;9.15;3.42;;;;;;;;;;5032337;28;20029;-69
2022/11/03 02:08:53;;;;;;;5.13;3.30;;;;;;;;;;5032155;28;20025;-68
2022/11/03 02:14:02;;;;;;;9.15;3.78;;;;;;;;;;5032377;28;20445;-69
2022/11/03 02:16:31;;;;;;;8.85;3.58;;;;;;;;;;5032374;28;20101;-68
2022/11/03 02:18:59;;;;;;;7.60;3.95;;;;;;;;;;5033291;28;20034;-68
2022/11/03 02:21:36;;;;;;;8.10;4.00;;;;;;;;;;5035739;28;20021;-68
2022/11/03 02:24:38;;;;;;;8.88;3.78;;;;;;;;;;5035790;28;20030;-72
2022/11/03 02:27:04;;;;;;;7.95;3.78;;;;;;;;;;5035180;28;20107;-68
2022/11/03 02:29:29;;;;;;;9.70;3.83;;;;;;;;;;5035581;28;20029;-68
2022/11/03 02:32:03;;;;;;;14.93;4.18;;;;;;;;;;5035676;28;20026;-71
2022/11/03 02:34:47;;;;;;;8.85;3.97;;;;;;;;;;5034358;28;20377;-68
2022/11/03 02:37:44;;;;;;;10.50;3.53;;;;;;;;;;5051943;28;20025;-68
2022/11/03 02:40:27;;;;;;;8.88;3.53;;;;;;;;;;5053946;28;20056;-69
2022/11/03 02:42:53;;;;;;;8.80;3.97;;;;;;;;;;5054590;28;20082;-68
2022/11/03 02:45:23;;;;;;;7.70;3.78;;;;;;;;;;5054441;28;20029;-68
2022/11/03 02:47:51;;;;;;;6.90;4.15;;;;;;;;;;5054334;28;20056;-67
2022/11/03 02:50:18;;;;;;;12.65;4.63;;;;;;;;;;5054299;28;20090;-68
2022/11/03 02:52:48;;;;;;;13.15;4.50;;;;;;;;;;5054290;28;20060;-68
2022/11/03 02:55:16;;;;;;;9.70;4.40;;;;;;;;;;5062711;28;20016;-68
2022/11/03 02:58:06;;;;;;;10.60;4.47;;;;;;;;;;5074275;28;20056;-68
2022/11/03 03:00:38;;;;;;;13.20;4.45;;;;;;;;;;5056598;28;20016;-67
2022/11/03 03:03:10;;;;;;;8.10;4.25;;;;;;;;;;5074177;28;20027;-68
2022/11/03 03:05:39;;;;;;;11.07;4.10;;;;;;;;;;5074063;28;20060;-67
2022/11/03 03:08:09;;;;;;;7.80;3.92;;;;;;;;;;5074065;28;20047;-76
2022/11/03 03:10:41;;;;;;;10.43;4.28;;;;;;;;;;5073852;28;20037;-68
2022/11/03 03:13:09;;;;;;;8.20;4.47;;;;;;;;;;5074057;28;20039;-68
2022/11/03 03:15:39;;;;;;;9.18;3.97;;;;;;;;;;5073895;28;20032;-68
2022/11/03 03:18:34;;;;;;;8.80;3.78;;;;;;;;;;5072664;28;20108;-68
2022/11/03 03:21:30;;;;;;;11.63;4.15;;;;;;;;;;5069942;28;20035;-67
2022/11/03 03:24:06;;;;;;;12.18;4.70;;;;;;;;;;5072526;28;20036;-68
2022/11/03 03:26:36;;;;;;;13.07;3.85;;;;;;;;;;5073676;28;20021;-68
2022/11/03 03:29:16;;;;;;;12.82;4.65;;;;;;;;;;5056173;28;20552;-68
2022/11/03 03:31:47;;;;;;;12.20;3.95;;;;;;;;;;5053037;28;20040;-68
2022/11/03 03:34:15;;;;;;;8.48;4.32;;;;;;;;;;5053543;28;20024;-73
2022/11/03 03:36:45;;;;;;;13.07;4.68;;;;;;;;;;5053483;28;20071;-72
2022/11/03 03:39:13;;;;;;;17.15;5.45;;;;;;;;;;5053271;28;20086;-73
2022/11/03 03:41:39;;;;;;;11.40;4.75;;;;;;;;;;5053303;28;20031;-68
2022/11/03 03:44:07;;;;;;;15.65;5.05;;;;;;;;;;5053423;28;20049;-68
2022/11/03 03:46:40;;;;;;;12.30;4.65;;;;;;;;;;5053128;28;20094;-71
2022/11/03 03:49:06;;;;;;;10.07;4.18;;;;;;;;;;5053235;28;20462;-68
2022/11/03 03:51:32;;;;;;;9.95;4.68;;;;;;;;;;5053176;28;20036;-68
2022/11/03 03:53:58;;;;;;;10.45;5.22;;;;;;;;;;5051723;28;20103;-68
2022/11/03 03:56:38;;;;;;;9.63;4.68;;;;;;;;;;5053024;28;20029;-74
2022/11/03 03:59:04;;;;;;;9.65;4.55;;;;;;;;;;5053181;28;20033;-68
2022/11/03 04:01:29;;;;;;;7.05;4.00;;;;;;;;;;5053020;28;20113;-68
2022/11/03 04:03:55;;;;;;;9.20;4.18;;;;;;;;;;5052908;28;20025;-68
2022/11/03 04:06:20;;;;;;;9.10;4.78;;;;;;;;;;5053250;28;20028;-67
2022/11/03 04:08:45;;;;;;;9.52;4.75;;;;;;;;;;5053157;28;20024;-68
2022/11/03 04:22:16;;;;;;;8.95;4.28;;;;;;;;;;5052902;28;20028;-68
2022/11/03 04:24:49;;;;;;;8.90;4.28;;;;;;;;;;5053372;28;20028;-66
2022/11/03 04:27:33;;;;;;;6.90;4.07;;;;;;;;;;5053025;28;20486;-67
2022/11/03 04:30:05;;;;;;;12.98;4.70;;;;;;;;;;5052414;28;20032;-66
2022/11/03 04:32:30;;;;;;;9.70;4.22;;;;;;;;;;5052507;28;20037;-67
2022/11/03 04:34:57;;;;;;;8.88;4.07;;;;;;;;;;5052406;28;20386;-67
2022/11/03 04:37:27;;;;;;;7.10;3.58;;;;;;;;;;5052287;28;20025;-67
2022/11/03 04:39:59;;;;;;;11.40;4.50;;;;;;;;;;5053003;28;20094;-66
2022/11/03 04:42:25;;;;;;;6.45;3.90;;;;;;;;;;5051700;28;20025;-67
2022/11/03 04:44:50;;;;;;;8.65;4.65;;;;;;;;;;5052399;28;20442;-70
2022/11/03 04:47:17;;;;;;;14.52;4.35;;;;;;;;;;5052171;28;20073;-69
2022/11/03 04:49:45;;;;;;;8.38;3.15;;;;;;;;;;5052542;28;20033;-69
2022/11/03 04:52:15;;;;;;;8.57;3.92;;;;;;;;;;5052476;28;20149;-67
2022/11/03 04:54:41;;;;;;;5.13;3.10;;;;;;;;;;5052620;28;20363;-67
2022/11/03 04:57:12;;;;;;;12.40;3.70;;;;;;;;;;5052102;28;20401;-67
2022/11/03 04:59:40;;;;;;;8.82;4.40;;;;;;;;;;5052033;28;20035;-67
2022/11/03 05:02:12;;;;;;;12.30;4.55;;;;;;;;;;5051945;28;20449;-67
2022/11/03 05:04:37;;;;;;;12.57;4.90;;;;;;;;;;5051583;28;20047;-67
2022/11/03 05:07:22;;;;;;;8.95;4.53;;;;;;;;;;5052517;28;20421;-67
2022/11/03 05:09:48;;;;;;;12.15;4.80;;;;;;;;;;5052484;28;20037;-66
2022/11/03 05:12:13;;;;;;;8.10;4.35;;;;;;;;;;5052500;28;20092;-66
2022/11/03 05:14:39;;;;;;;7.55;4.20;;;;;;;;;;5052222;28;20025;-67
2022/11/03 05:17:17;;;;;;;5.82;3.58;;;;;;;;;;5052423;28;20398;-66
2022/11/03 05:19:43;;;;;;;12.77;4.93;;;;;;;;;;5051961;28;20020;-67
2022/11/03 05:22:19;;;;;;;6.50;4.13;;;;;;;;;;5052348;28;20029;-67
2022/11/03 05:24:44;;;;;;;9.48;4.88;;;;;;;;;;5052253;28;20025;-66
2022/11/03 05:27:19;;;;;;;8.98;4.55;;;;;;;;;;5051618;28;20040;-69
2022/11/03 05:29:46;;;;;;;10.10;4.15;;;;;;;;;;5051528;28;20037;-75
2022/11/03 05:32:15;;;;;;;11.68;5.20;;;;;;;;;;5051573;28;20022;-67
2022/11/03 05:34:42;;;;;;;8.10;3.85;;;;;;;;;;5051615;28;20032;-66
2022/11/03 05:37:22;;;;;;;7.80;4.10;;;;;;;;;;5052244;28;20025;-74
2022/11/03 05:39:49;;;;;;;11.07;3.83;;;;;;;;;;5052326;28;20025;-66
2022/11/03 05:42:30;;;;;;;8.40;4.47;;;;;;;;;;5051994;28;20037;-67
2022/11/03 05:44:57;;;;;;;6.85;4.00;;;;;;;;;;5052010;28;20581;-72
2022/11/03 05:47:36;;;;;;;7.68;3.90;;;;;;;;;;5052017;28;20041;-67
2022/11/03 05:50:11;;;;;;;12.52;4.22;;;;;;;;;;5051636;28;20104;-67
2022/11/03 05:52:36;;;;;;;8.30;3.97;;;;;;;;;;5052039;28;20072;-67
2022/11/03 05:55:02;;;;;;;11.57;3.97;;;;;;;;;;5054648;28;20486;-66
2022/11/03 05:57:29;;;;;;;8.20;4.38;;;;;;;;;;5055230;28;20111;-66
2022/11/03 05:59:55;;;;;;;10.93;4.57;;;;;;;;;;5055210;28;20028;-66
2022/11/03 06:02:28;;;;;;;10.95;4.68;;;;;;;;;;5055310;28;20466;-68
2022/11/03 06:04:54;;;;;;;8.85;4.00;;;;;;;;;;5055263;28;20413;-71
2022/11/03 06:07:25;;;;;;;7.35;3.67;;;;;;;;;;5055551;28;20163;-67
2022/11/03 06:09:53;;;;;;;15.57;5.13;;;;;;;;;;5055708;28;20034;-67
2022/11/03 06:12:21;;;;;;;15.48;6.32;;;;;;;;;;5055649;28;20029;-66
2022/11/03 06:14:47;;;;;;;13.27;5.53;;;;;;;;;;5055591;28;20161;-67
2022/11/03 06:17:24;;;;;;;11.18;4.90;;;;;;;;;;5055379;28;20067;-72
2022/11/03 06:19:56;;;;;;;6.25;3.42;;;;;;;;;;5055838;28;20021;-74
2022/11/03 06:22:26;;;;;;;7.38;3.50;;;;;;;;;;5055527;28;20166;-67
2022/11/03 06:24:57;;;;;;;9.45;4.32;;;;;;;;;;5055473;28;20025;-67
2022/11/03 06:27:24;;;;;;;12.57;4.30;;;;;;;;;;5054519;28;20102;-70
2022/11/03 06:29:55;;;;;;;8.85;4.40;;;;;;;;;;5054621;28;20040;-66
2022/11/03 06:32:20;;;;;;;12.07;4.40;;;;;;;;;;5054373;28;20039;-74
2022/11/03 06:34:52;;;;;;;9.40;4.43;;;;;;;;;;5054517;28;20017;-66
2022/11/03 06:37:33;;;;;;;12.85;5.10;;;;;;;;;;5055161;28;20032;-68
2022/11/03 06:40:10;;;;;;;12.32;5.05;;;;;;;;;;5055263;28;20500;-68
2022/11/03 06:42:39;;;;;;;8.52;4.30;;;;;;;;;;5054885;28;20028;-66
2022/11/03 06:45:17;;;;;;;11.98;4.53;;;;;;;;;;5055232;28;20025;-67
2022/11/03 06:47:43;;;;;;;9.68;4.50;;;;;;;;;;5054687;28;20478;-66
2022/11/03 06:50:28;;;;;;;11.88;4.88;;;;;;;;;;5054862;28;20047;-69
2022/11/03 06:52:55;;;;;;;8.43;3.72;;;;;;;;;;5054892;28;20029;-68
2022/11/03 06:55:30;;;;;;;10.60;4.40;;;;;;;;;;5054564;28;20055;-68
2022/11/03 06:58:06;;;;;;;11.20;4.32;;;;;;;;;;5054214;28;20103;-67
2022/11/03 07:00:37;;;;;;;9.35;4.43;;;;;;;;;;5053802;28;20036;-67
2022/11/03 07:03:09;;;;;;;13.35;4.85;;;;;;;;;;5053910;28;20044;-66
2022/11/03 07:05:35;;;;;;;12.40;4.63;;;;;;;;;;5052819;28;20104;-76
2022/11/03 07:08:10;;;;;;;12.45;5.22;;;;;;;;;;5054437;28;20049;-67
2022/11/03 07:10:35;;;;;;;11.93;5.95;;;;;;;;;;5054318;28;20033;-68
2022/11/03 07:13:23;;;;;;;11.27;5.50;;;;;;;;;;5054537;28;20021;-67
2022/11/03 07:15:49;;;;;;;9.85;5.50;;;;;;;;;;5054149;28;20029;-67
2022/11/03 07:18:29;;;;;;;9.10;4.65;;;;;;;;;;5054549;28;20037;-69
2022/11/03 07:20:57;;;;;;;13.10;4.40;;;;;;;;;;5054264;28;20029;-67
2022/11/03 07:23:25;;;;;;;12.45;4.20;;;;;;;;;;5054270;28;20032;-67
2022/11/03 07:26:00;;;;;;;7.65;3.25;;;;;;;;;;5054240;28;20028;-68
2022/11/03 07:28:31;;;;;;;9.57;3.78;;;;;;;;;;5041903;28;20026;-68
2022/11/03 07:31:00;;;;;;;6.82;3.42;;;;;;;;;;5033937;28;20064;-68
2022/11/03 07:33:28;;;;;;;9.05;3.58;;;;;;;;;;5034233;28;20026;-67
2022/11/03 07:35:56;;;;;;;12.07;3.85;;;;;;;;;;5034127;28;20100;-68
2022/11/03 07:38:23;;;;;;;5.80;3.45;;;;;;;;;;5034254;28;20040;-67
2022/11/03 07:40:50;;;;;;;8.05;3.40;;;;;;;;;;5034041;28;20029;-67
2022/11/03 07:43:27;;;;;;;10.82;3.85;;;;;;;;;;5033298;28;20096;-67
2022/11/03 07:45:56;;;;;;;11.45;3.72;;;;;;;;;;5032965;28;20079;-67
2022/11/03 07:48:32;;;;;;;9.77;4.00;;;;;;;;;;5033307;28;20068;-67
2022/11/03 07:51:20;;;;;;;7.97;3.80;;;;;;;;;;5033601;28;20037;-66
2022/11/03 07:53:49;;;;;;;8.50;3.55;;;;;;;;;;5033431;28;20030;-71
2022/11/03 07:56:19;;;;;;;12.40;3.80;;;;;;;;;;5033509;28;20033;-66
2022/11/03 07:59:06;;;;;;;12.13;3.90;;;;;;;;;;5033521;28;20397;-70
2022/11/03 08:01:36;;;;;;;12.00;4.40;;;;;;;;;;5045566;28;20037;-67
2022/11/03 08:04:12;;;;;;;7.68;3.72;;;;;;;;;;5053425;28;20112;-72
2022/11/03 08:06:37;;;;;;;7.68;3.70;;;;;;;;;;5053385;28;20043;-67
2022/11/03 08:09:03;;;;;;;10.02;3.67;;;;;;;;;;5053300;28;20033;-67
2022/11/03 08:11:29;;;;;;;10.25;3.47;;;;;;;;;;5053259;28;20098;-67
2022/11/03 08:13:54;;;;;;;7.18;3.38;;;;;;;;;;5052379;28;20477;-67
2022/11/03 08:16:20;;;;;;;12.27;3.60;;;;;;;;;;5052370;28;20032;-68
2022/11/03 08:18:45;;;;;;;7.30;3.03;;;;;;;;;;5052281;28;20024;-69
2022/11/03 08:21:11;;;;;;;8.07;3.40;;;;;;;;;;5052755;28;20028;-67
2022/11/03 08:23:37;;;;;;;7.40;3.30;;;;;;;;;;5053006;28;20398;-67
2022/11/03 08:26:03;;;;;;;7.43;2.88;;;;;;;;;;5053171;28;20025;-67
2022/11/03 08:28:29;;;;;;;5.30;2.63;;;;;;;;;;5040144;28;20534;-75
2022/11/03 08:31:00;;;;;;;9.88;3.00;;;;;;;;;;5033007;28;20038;-68
2022/11/03 08:33:27;;;;;;;8.63;3.53;;;;;;;;;;5042280;28;20025;-67
2022/11/03 08:35:53;;;;;;;6.90;3.28;;;;;;;;;;5046310;28;20037;-67
2022/11/03 08:38:18;;;;;;;9.45;3.60;;;;;;;;;;5052684;28;20115;-68
2022/11/03 08:40:44;;;;;;;11.23;3.10;;;;;;;;;;5050914;28;20490;-67
2022/11/03 08:43:09;;;;;;;7.28;2.75;;;;;;;;;;5052210;28;20389;-66
2022/11/03 08:45:35;;;;;;;6.88;3.03;;;;;;;;;;5052290;28;20036;-67
2022/11/03 08:48:00;;;;;;;7.25;3.05;;;;;;;;;;5051751;28;20052;-67
2022/11/03 08:50:26;;;;;;;8.73;3.47;;;;;;;;;;5051469;28;20040;-66
2022/11/03 08:52:51;;;;;;;7.85;3.00;;;;;;;;;;5052435;28;20025;-67
2022/11/03 08:55:17;;;;;;;5.75;3.05;;;;;;;;;;5052172;28;20352;-67
2022/11/03 08:57:43;;;;;;;6.03;2.63;;;;;;;;;;5051970;28;20495;-66
2022/11/03 09:00:09;;;;;;;7.25;3.10;;;;;;;;;;5046236;28;20107;-67
2022/11/03 09:02:34;;;;;;;8.27;2.85;;;;;;;;;;5035233;28;20439;-70
2022/11/03 09:05:00;;;;;;;8.90;2.97;;;;;;;;;;5031940;28;20030;-68
2022/11/03 09:07:25;;;;;;;8.52;2.60;;;;;;;;;;5032058;28;20013;-67
2022/11/03 09:09:51;;;;;;;10.25;3.13;;;;;;;;;;5031808;28;20025;-66
2022/11/03 09:12:16;;;;;;;6.57;3.05;;;;;;;;;;5031369;28;20032;-66
2022/11/03 09:14:42;;;;;;;9.15;3.10;;;;;;;;;;5031285;28;20029;-67
2022/11/03 09:17:07;;;;;;;6.18;2.70;;;;;;;;;;5031931;28;20115;-67
2022/11/03 09:19:33;;;;;;;8.10;2.78;;;;;;;;;;5031660;28;20029;-66
2022/11/03 09:21:59;;;;;;;10.13;3.10;;;;;;;;;;5031853;28;20577;-69
2022/11/03 09:24:25;;;;;;;6.22;2.88;;;;;;;;;;5031988;28;20045;-69
2022/11/03 09:26:51;;;;;;;7.60;3.00;;;;;;;;;;5031415;28;20104;-67
2022/11/03 09:29:16;;;;;;;6.18;2.75;;;;;;;;;;5052387;28;20129;-67
2022/11/03 09:31:42;;;;;;;9.00;3.33;;;;;;;;;;5055774;28;20067;-67
2022/11/03 09:34:07;;;;;;;7.30;3.10;;;;;;;;;;5056755;28;20017;-67
2022/11/03 09:36:33;;;;;;;6.03;3.00;;;;;;;;;;5055792;28;20490;-67
2022/11/03 09:38:58;;;;;;;9.65;3.20;;;;;;;;;;5055789;28;20106;-71
2022/11/03 09:41:23;;;;;;;7.35;3.00;;;;;;;;;;5055235;28;20029;-76
2022/11/03 09:43:49;;;;;;;8.73;2.55;;;;;;;;;;5055131;28;20029;-67
2022/11/03 09:46:15;;;;;;;9.18;3.25;;;;;;;;;;5054859;28;20045;-66
2022/11/03 09:48:41;;;;;;;6.88;2.63;;;;;;;;;;5054822;28;20486;-66
2022/11/03 09:51:12;;;;;;;7.50;2.80;;;;;;;;;;5055558;28;20107;-66
2022/11/03 09:53:38;;;;;;;8.07;3.03;;;;;;;;;;5055460;28;20021;-66
2022/11/03 09:56:04;;;;;;;11.45;3.50;;;;;;;;;;5055151;28;20036;-68
2022/11/03 09:58:32;;;;;;;14.43;3.30;;;;;;;;;;5054854;28;20470;-66
2022/11/03 10:00:59;;;;;;;7.85;2.90;;;;;;;;;;5054927;28;20489;-66
2022/11/03 10:03:25;;;;;;;6.93;3.05;;;;;;;;;;5054862;28;20155;-66
2022/11/03 10:05:50;;;;;;;9.85;3.05;;;;;;;;;;5055128;28;20079;-68
2022/11/03 10:08:19;;;;;;;8.32;2.97;;;;;;;;;;5055387;28;20033;-66
2022/11/03 10:10:44;;;;;;;10.52;3.42;;;;;;;;;;5054776;28;20032;-67
2022/11/03 10:13:16;;;;;;;9.65;3.05;;;;;;;;;;5055267;28;20549;-66
2022/11/03 10:15:42;;;;;;;9.93;2.90;;;;;;;;;;5055309;28;20027;-66
2022/11/03 10:18:08;;;;;;;10.05;2.63;;;;;;;;;;5055485;28;20107;-67
2022/11/03 10:20:34;;;;;;;8.45;2.65;;;;;;;;;;5066225;28;20012;-70
2022/11/03 10:23:00;;;;;;;8.65;2.60;;;;;;;;;;5075011;28;20099;-68
2022/11/03 10:25:35;;;;;;;5.97;2.50;;;;;;;;;;5060933;28;20028;-65
2022/11/03 10:28:27;;;;;;;7.07;2.47;;;;;;;;;;5053385;28;20544;-68
2022/11/03 10:31:05;;;;;;;5.45;2.17;;;;;;;;;;5052283;28;20512;-66
2022/11/03 10:33:40;;;;;;;4.82;2.00;;;;;;;;;;5052143;28;20028;-67
2022/11/03 10:36:14;;;;;;;6.13;2.08;;;;;;;;;;5051352;28;20025;-66
2022/11/03 10:38:40;;;;;;;8.70;2.75;;;;;;;;;;5053342;28;20025;-65
2022/11/03 10:41:20;;;;;;;7.28;2.47;;;;;;;;;;5053658;28;20029;-75
2022/11/03 10:44:17;;;;;;;8.17;2.47;;;;;;;;;;5053602;28;20021;-65
2022/11/03 10:46:59;;;;;;;5.05;2.00;;;;;;;;;;5052577;28;20402;-65
2022/11/03 10:49:28;;;;;;;6.22;2.00;;;;;;;;;;5054402;28;20124;-70
2022/11/03 10:52:04;;;;;;;8.18;2.10;;;;;;;;;;5054374;28;20032;-66
2022/11/03 10:54:30;;;;;;;7.18;2.30;;;;;;;;;;5054313;28;20374;-65
2022/11/03 10:56:55;;;;;;;11.52;2.20;;;;;;;;;;5054652;28;20091;-74
2022/11/03 10:59:30;;;;;;;8.98;2.00;;;;;;;;;;5054806;28;20386;-66
2022/11/03 11:01:57;;;;;;;6.53;2.10;;;;;;;;;;5053887;28;20021;-66
2022/11/03 11:04:22;;;;;;;6.07;2.10;;;;;;;;;;5054453;28;20100;-69
2022/11/03 11:06:48;;;;;;;7.80;2.03;;;;;;;;;;5054383;28;20059;-67
2022/11/03 11:09:20;;;;;;;11.40;2.47;;;;;;;;;;5054163;28;20370;-66
2022/11/03 11:12:06;;;;;;;11.02;2.15;;;;;;;;;;5053169;28;20432;-66
2022/11/03 11:14:37;;;;;;;5.90;1.92;;;;;;;;;;5054258;28;20486;-65
2022/11/03 11:17:05;;;;;;;5.30;1.75;;;;;;;;;;5053681;28;20025;-65
2022/11/03 11:20:08;;;;;;;5.25;2.00;;;;;;;;;;5054192;28;20031;-67
2022/11/03 11:22:34;;;;;;;6.55;1.70;;;;;;;;;;5053745;28;20483;-65
2022/11/03 11:25:00;;;;;;;4.97;1.55;;;;;;;;;;5054224;28;20094;-65
2022/11/03 11:27:31;;;;;;;3.50;1.80;;;;;;;;;;5053667;28;20490;-66
2022/11/03 11:29:57;;;;;;;7.25;2.08;;;;;;;;;;5053898;28;20106;-65
2022/11/03 11:32:38;;;;;;;4.97;1.80;;;;;;;;;;5053967;28;20029;-67
2022/11/03 11:35:10;;;;;;;3.25;1.40;;;;;;;;;;5053538;28;20028;-66
2022/11/03 11:37:37;;;;;;;5.32;1.85;;;;;;;;;;5053825;28;20140;-69
2022/11/03 11:40:24;;;;;;;5.45;1.52;;;;;;;;;;5054137;28;20021;-66
2022/11/03 11:43:02;;;;;;;4.80;1.45;;;;;;;;;;5053572;28;20032;-66
2022/11/03 11:46:04;;;;;;;5.18;1.58;;;;;;;;;;5053716;28;20027;-67
2022/11/03 11:48:30;;;;;;;3.67;1.23;;;;;;;;;;5053400;28;20116;-70
2022/11/03 11:50:57;;;;;;;4.72;1.40;;;;;;;;;;5053346;28;20059;-66
2022/11/03 11:53:24;;;;;;;5.30;1.67;;;;;;;;;;5053344;28;20032;-67
2022/11/03 11:55:59;;;;;;;5.97;1.75;;;;;;;;;;5053586;28;20042;-66
2022/11/03 11:58:39;;;;;;;6.22;1.80;;;;;;;;;;5053675;28;20083;-67
2022/11/03 12:01:18;;;;;;;;;;;;;;;;;;5054003;28;20036;-67
2022/11/03 12:03:45;;;;;;;5.10;1.42;;;;;;;;;;5053521;28;19995;-66
2022/11/03 12:06:14;;;;;;;8.10;1.85;;;;;;;;;;5053290;28;20055;-67
2022/11/03 12:08:40;;;;;;;4.53;1.70;;;;;;;;;;5053161;28;20029;-68
2022/11/03 12:11:08;;;;;;;9.07;2.55;;;;;;;;;;5053111;28;20470;-67
2022/11/03 12:13:46;;;;;;;10.68;2.05;;;;;;;;;;5053802;28;20021;-68
2022/11/03 12:16:27;;;;;;;8.07;1.67;;;;;;;;;;5048307;28;20086;-67
2022/11/03 12:18:53;;;;;;;7.25;1.35;;;;;;;;;;5044261;28;20036;-67
2022/11/03 12:21:47;;;;;;;5.53;1.98;;;;;;;;;;5052896;28;20398;-67
2022/11/03 12:24:31;;;;;;;4.97;2.13;;;;;;;;;;5052029;28;20110;-67
2022/11/03 12:26:57;;;;;;;4.78;1.17;;;;;;;;;;5053156;28;20032;-73
2022/11/03 12:29:23;;;;;;;5.35;1.55;;;;;;;;;;5033828;28;20616;-69
2022/11/03 12:31:49;;;;;;;4.68;1.73;;;;;;;;;;5043213;28;20120;-71
2022/11/03 12:34:15;;;;;;;3.85;1.85;;;;;;;;;;5052621;28;20029;-70
2022/11/03 12:36:44;;;;;;;6.32;1.90;;;;;;;;;;5052497;28;20108;-71
2022/11/03 12:39:10;;;;;;;10.85;2.33;;;;;;;;;;5052669;28;20363;-66
2022/11/03 12:41:35;;;;;;;5.75;2.00;;;;;;;;;;5052823;28;20021;-67
2022/11/03 12:44:01;;;;;;;12.90;2.65;;;;;;;;;;5052672;28;20482;-67
2022/11/03 12:46:27;;;;;;;7.95;2.92;;;;;;;;;;5052460;28;20047;-68
2022/11/03 12:48:52;;;;;;;7.72;2.03;;;;;;;;;;5052346;28;20083;-67
2022/11/03 12:51:20;;;;;;;4.40;2.00;;;;;;;;;;5052546;28;20382;-67
2022/11/03 12:53:45;;;;;;;8.93;2.50;;;;;;;;;;5052558;28;20100;-68
2022/11/03 12:56:12;;;;;;;9.32;2.20;;;;;;;;;;5052654;28;20165;-67
2022/11/03 12:58:38;;;;;;;8.10;2.47;;;;;;;;;;5052594;28;20152;-67
2022/11/03 13:01:05;;;;;;;11.35;2.88;;;;;;;;;;5052189;28;20033;-66
2022/11/03 13:03:31;;;;;;;7.45;2.53;;;;;;;;;;5051416;28;20029;-67
2022/11/03 13:05:57;;;;;;;10.52;2.70;;;;;;;;;;5052612;28;20036;-67
2022/11/03 13:08:23;;;;;;;5.70;2.08;;;;;;;;;;5052450;28;20028;-67
2022/11/03 13:10:49;;;;;;;9.35;2.28;;;;;;;;;;5052295;28;20475;-70
2022/11/03 13:13:15;;;;;;;7.80;2.13;;;;;;;;;;5052266;28;20025;-66
2022/11/03 13:15:41;;;;;;;7.38;2.17;;;;;;;;;;5034423;28;20056;-68
2022/11/03 13:18:06;;;;;;;7.47;2.45;;;;;;;;;;5052115;28;20078;-68
2022/11/03 13:20:33;;;;;;;5.60;1.90;;;;;;;;;;5052075;28;20021;-66
2022/11/03 13:22:59;;;;;;;6.50;2.35;;;;;;;;;;5052228;28;20033;-66
2022/11/03 13:25:24;;;;;;;5.43;1.98;;;;;;;;;;5052075;28;20032;-66
2022/11/03 13:27:52;;;;;;;5.20;1.77;;;;;;;;;;5052060;28;20051;-66
2022/11/03 13:30:27;;;;;;;6.28;2.45;;;;;;;;;;5052135;28;20052;-66
2022/11/03 13:32:53;;;;;;;6.75;2.50;;;;;;;;;;5050723;28;20033;-66
2022/11/03 13:35:18;;;;;;;6.05;2.10;;;;;;;;;;5052024;28;20167;-66
2022/11/03 13:37:44;;;;;;;6.75;2.40;;;;;;;;;;5051928;28;20024;-67
2022/11/03 13:40:14;;;;;;;7.57;2.45;;;;;;;;;;5051814;28;20025;-67
2022/11/03 13:42:40;;;;;;;7.27;2.37;;;;;;;;;;5052148;28;20025;-67
2022/11/03 13:45:06;;;;;;;6.32;2.10;;;;;;;;;;5052019;28;20377;-66
2022/11/03 13:47:32;;;;;;;7.80;2.15;;;;;;;;;;5051683;28;20049;-67
2022/11/03 13:49:59;;;;;;;9.95;2.08;;;;;;;;;;5051774;28;20052;-66
2022/11/03 13:52:25;;;;;;;9.70;2.25;;;;;;;;;;5052167;28;20029;-66
2022/11/03 13:54:51;;;;;;;6.50;2.55;;;;;;;;;;5052185;28;20040;-66
2022/11/03 13:57:17;;;;;;;7.35;2.42;;;;;;;;;;5050616;28;20033;-66
2022/11/03 13:59:42;;;;;;;8.43;2.33;;;;;;;;;;5051922;28;20450;-66
2022/11/03 14:02:08;;;;;;;7.22;2.40;;;;;;;;;;5051848;28;20029;-66
2022/11/03 14:04:34;;;;;;;8.82;2.75;;;;;;;;;;5051877;28;20029;-66
2022/11/03 14:07:00;;;;;;;6.20;2.00;;;;;;;;;;5051883;28;20024;-66
2022/11/03 14:09:25;;;;;;;8.75;2.55;;;;;;;;;;5051721;28;20129;-66
2022/11/03 14:14:35;;;;;;;6.45;2.20;;;;;;;;;;5052347;28;20096;-65
2022/11/03 14:17:00;;;;;;;6.25;2.35;;;;;;;;;;5054323;28;20028;-65
2022/11/03 14:19:26;;;;;;;9.18;2.88;;;;;;;;;;5055711;28;20025;-65
2022/11/03 14:21:51;;;;;;;6.35;2.88;;;;;;;;;;5055630;28;20847;-74
2022/11/03 14:24:16;;;;;;;6.95;2.72;;;;;;;;;;5055608;28;20037;-66
2022/11/03 14:26:42;;;;;;;8.90;2.85;;;;;;;;;;5055266;28;20025;-67
2022/11/03 14:29:08;;;;;;;14.38;2.80;;;;;;;;;;5055443;28;20060;-66
2022/11/03 14:31:33;;;;;;;13.63;3.00;;;;;;;;;;5055289;28;20028;-66
2022/11/03 14:33:59;;;;;;;7.40;3.00;;;;;;;;;;5055261;28;20025;-66
2022/11/03 14:36:25;;;;;;;13.82;3.30;;;;;;;;;;5055304;28;20127;-76
2022/11/03 14:38:51;;;;;;;8.70;3.10;;;;;;;;;;5055593;28;20398;-68
2022/11/03 14:44:02;;;;;;;7.10;3.25;;;;;;;;;;5055366;28;20090;-66
2022/11/03 14:46:27;;;;;;;4.85;2.50;;;;;;;;;;5054736;28;20398;-66
2022/11/03 14:48:53;;;;;;;7.15;2.60;;;;;;;;;;5055054;28;20032;-67
2022/11/03 14:51:19;;;;;;;13.80;3.10;;;;;;;;;;5055155;28;20025;-74
2022/11/03 14:53:44;;;;;;;6.57;3.22;;;;;;;;;;5055001;28;20025;-66
2022/11/03 14:56:10;;;;;;;8.10;2.30;;;;;;;;;;5055011;28;20032;-66
2022/11/03 14:58:36;;;;;;;5.45;2.65;;;;;;;;;;5055028;28;20029;-66
2022/11/03 15:01:02;;;;;;;6.47;2.47;;;;;;;;;;5054755;28;20044;-67
2022/11/03 15:03:27;;;;;;;10.10;2.95;;;;;;;;;;5054444;28;20029;-67
2022/11/03 15:05:54;;;;;;;8.13;3.03;;;;;;;;;;5053970;28;20033;-66
2022/11/03 15:08:21;;;;;;;9.82;4.15;;;;;;;;;;5054825;28;20037;-68
2022/11/03 15:10:46;;;;;;;10.15;4.35;;;;;;;;;;5070895;28;20063;-67
2022/11/03 15:13:12;;;;;;;10.00;4.13;;;;;;;;;;5074740;28;20029;-66
2022/11/03 15:15:40;;;;;;;11.95;5.20;;;;;;;;;;5074300;28;20025;-66
2022/11/03 15:18:06;;;;;;;12.85;4.47;;;;;;;;;;5066074;28;20021;-66